sensor_id;sensor_type;location;lat;lon;timestamp;pressure;altitude;pressure_sealevel;temperature;humidity
22649;BME280;11491;41.942;24.220;2023-03-18T00:01:16;90103.19;;;2.55;73.03
22649;BME280;11491;41.942;24.220;2023-03-18T00:03:43;90095.75;;;2.57;72.62
22649;BME280;11491;41.942;24.220;2023-03-18T00:06:11;90096.34;;;2.54;72.21
22649;BME280;11491;41.942;24.220;2023-03-18T00:08:41;90093.03;;;2.62;71.93
22649;BME280;11491;41.942;24.220;2023-03-18T00:11:10;90090.13;;;2.64;71.04
22649;BME280;11491;41.942;24.220;2023-03-18T00:13:37;90085.81;;;2.68;70.03
22649;BME280;11491;41.942;24.220;2023-03-18T00:16:07;90076.91;;;2.64;69.96
22649;BME280;11491;41.942;24.220;2023-03-18T00:18:36;90076.00;;;2.68;69.01
22649;BME280;11491;41.942;24.220;2023-03-18T00:21:03;90069.78;;;2.64;68.83
22649;BME280;11491;41.942;24.220;2023-03-18T00:23:31;90080.31;;;2.64;69.80
22649;BME280;11491;41.942;24.220;2023-03-18T00:26:01;90075.81;;;2.65;69.62
22649;BME280;11491;41.942;24.220;2023-03-18T00:28:29;90082.97;;;2.64;70.04
22649;BME280;11491;41.942;24.220;2023-03-18T00:31:02;90068.78;;;2.60;69.78
22649;BME280;11491;41.942;24.220;2023-03-18T00:33:29;90062.91;;;2.63;70.25
22649;BME280;11491;41.942;24.220;2023-03-18T00:35:56;90064.66;;;2.54;70.04
22649;BME280;11491;41.942;24.220;2023-03-18T00:38:22;90057.81;;;2.53;70.11
22649;BME280;11491;41.942;24.220;2023-03-18T00:40:51;90054.66;;;2.51;69.74
22649;BME280;11491;41.942;24.220;2023-03-18T00:43:28;90054.28;;;2.44;69.87
22649;BME280;11491;41.942;24.220;2023-03-18T00:45:58;90057.41;;;2.46;69.50
22649;BME280;11491;41.942;24.220;2023-03-18T00:48:26;90057.63;;;2.49;68.92
22649;BME280;11491;41.942;24.220;2023-03-18T00:50:54;90052.72;;;2.43;68.50
22649;BME280;11491;41.942;24.220;2023-03-18T00:53:20;90044.69;;;2.48;68.63
22649;BME280;11491;41.942;24.220;2023-03-18T00:55:49;90050.97;;;2.52;68.50
22649;BME280;11491;41.942;24.220;2023-03-18T00:58:16;90032.56;;;2.33;68.40
22649;BME280;11491;41.942;24.220;2023-03-18T01:00:45;90045.47;;;2.34;68.95
22649;BME280;11491;41.942;24.220;2023-03-18T01:03:12;90044.09;;;2.37;68.88
22649;BME280;11491;41.942;24.220;2023-03-18T01:05:39;90049.66;;;2.35;68.84
22649;BME280;11491;41.942;24.220;2023-03-18T01:08:06;90058.16;;;2.32;69.46
22649;BME280;11491;41.942;24.220;2023-03-18T01:10:32;90048.59;;;2.36;68.94
22649;BME280;11491;41.942;24.220;2023-03-18T01:12:59;90049.25;;;2.28;69.31
22649;BME280;11491;41.942;24.220;2023-03-18T01:15:26;90048.78;;;2.26;68.55
22649;BME280;11491;41.942;24.220;2023-03-18T01:17:55;90044.63;;;2.20;68.44
22649;BME280;11491;41.942;24.220;2023-03-18T01:20:23;90042.50;;;2.22;69.09
22649;BME280;11491;41.942;24.220;2023-03-18T01:22:50;90038.41;;;2.30;68.61
22649;BME280;11491;41.942;24.220;2023-03-18T01:25:17;90031.78;;;2.32;69.05
22649;BME280;11491;41.942;24.220;2023-03-18T01:27:43;90022.94;;;2.23;68.65
22649;BME280;11491;41.942;24.220;2023-03-18T01:30:11;90033.50;;;2.23;68.89
22649;BME280;11491;41.942;24.220;2023-03-18T01:32:38;90028.72;;;2.25;69.24
22649;BME280;11491;41.942;24.220;2023-03-18T01:35:08;90030.88;;;2.23;69.05
22649;BME280;11491;41.942;24.220;2023-03-18T01:37:35;90031.94;;;2.22;68.62
22649;BME280;11491;41.942;24.220;2023-03-18T01:40:02;90031.00;;;2.32;67.26
22649;BME280;11491;41.942;24.220;2023-03-18T01:42:29;90037.63;;;2.29;67.27
22649;BME280;11491;41.942;24.220;2023-03-18T01:45:14;90027.25;;;2.19;67.21
22649;BME280;11491;41.942;24.220;2023-03-18T01:47:44;90020.78;;;2.11;67.08
22649;BME280;11491;41.942;24.220;2023-03-18T01:50:14;90016.88;;;2.09;67.50
22649;BME280;11491;41.942;24.220;2023-03-18T01:52:43;90014.72;;;2.11;68.10
22649;BME280;11491;41.942;24.220;2023-03-18T01:55:13;90012.06;;;2.11;68.80
22649;BME280;11491;41.942;24.220;2023-03-18T01:57:41;90017.84;;;2.13;69.03
22649;BME280;11491;41.942;24.220;2023-03-18T02:00:10;90018.44;;;2.10;68.76
22649;BME280;11491;41.942;24.220;2023-03-18T02:02:38;90012.56;;;2.13;68.74
22649;BME280;11491;41.942;24.220;2023-03-18T02:05:07;90006.88;;;2.06;69.51
22649;BME280;11491;41.942;24.220;2023-03-18T02:07:37;90010.03;;;2.08;69.12
22649;BME280;11491;41.942;24.220;2023-03-18T02:10:10;89995.38;;;2.02;69.05
22649;BME280;11491;41.942;24.220;2023-03-18T02:12:41;89995.16;;;1.98;69.84
22649;BME280;11491;41.942;24.220;2023-03-18T02:15:12;89996.63;;;2.04;69.69
22649;BME280;11491;41.942;24.220;2023-03-18T02:17:41;89995.91;;;1.99;70.07
22649;BME280;11491;41.942;24.220;2023-03-18T02:20:16;89993.78;;;2.01;69.58
22649;BME280;11491;41.942;24.220;2023-03-18T02:22:49;89976.81;;;2.07;68.41
22649;BME280;11491;41.942;24.220;2023-03-18T02:25:27;89998.72;;;2.21;68.24
22649;BME280;11491;41.942;24.220;2023-03-18T02:28:01;89989.13;;;2.11;68.12
22649;BME280;11491;41.942;24.220;2023-03-18T02:30:32;89988.16;;;2.07;69.30
22649;BME280;11491;41.942;24.220;2023-03-18T02:32:59;90002.03;;;2.13;69.85
22649;BME280;11491;41.942;24.220;2023-03-18T02:35:27;89995.56;;;2.05;70.75
22649;BME280;11491;41.942;24.220;2023-03-18T02:37:55;90009.06;;;2.04;71.00
22649;BME280;11491;41.942;24.220;2023-03-18T02:40:24;90004.50;;;1.90;71.73
22649;BME280;11491;41.942;24.220;2023-03-18T02:42:51;90005.09;;;2.01;70.33
22649;BME280;11491;41.942;24.220;2023-03-18T02:45:30;90005.34;;;2.05;69.74
22649;BME280;11491;41.942;24.220;2023-03-18T02:48:03;90012.75;;;2.03;69.91
22649;BME280;11491;41.942;24.220;2023-03-18T02:50:32;90007.06;;;1.96;70.55
22649;BME280;11491;41.942;24.220;2023-03-18T02:53:00;90001.94;;;1.85;70.53
22649;BME280;11491;41.942;24.220;2023-03-18T02:55:27;90007.91;;;1.91;70.60
22649;BME280;11491;41.942;24.220;2023-03-18T02:57:54;89991.56;;;1.75;71.58
22649;BME280;11491;41.942;24.220;2023-03-18T03:00:21;89996.84;;;1.75;73.00
22649;BME280;11491;41.942;24.220;2023-03-18T03:02:49;90000.81;;;1.91;72.32
22649;BME280;11491;41.942;24.220;2023-03-18T03:05:16;89994.72;;;1.91;72.27
22649;BME280;11491;41.942;24.220;2023-03-18T03:07:42;89996.09;;;1.88;71.89
22649;BME280;11491;41.942;24.220;2023-03-18T03:10:11;89991.19;;;1.82;72.26
22649;BME280;11491;41.942;24.220;2023-03-18T03:12:37;89989.44;;;1.91;72.70
22649;BME280;11491;41.942;24.220;2023-03-18T03:15:07;89978.88;;;1.77;73.16
22649;BME280;11491;41.942;24.220;2023-03-18T03:17:34;89978.09;;;1.77;73.18
22649;BME280;11491;41.942;24.220;2023-03-18T03:20:06;89997.66;;;1.89;72.63
22649;BME280;11491;41.942;24.220;2023-03-18T03:22:33;90004.34;;;2.01;72.66
22649;BME280;11491;41.942;24.220;2023-03-18T03:25:01;89999.06;;;2.01;72.30
22649;BME280;11491;41.942;24.220;2023-03-18T03:27:30;89999.97;;;2.10;71.94
22649;BME280;11491;41.942;24.220;2023-03-18T03:29:57;89992.63;;;2.07;72.30
22649;BME280;11491;41.942;24.220;2023-03-18T03:32:24;89983.81;;;1.98;72.45
22649;BME280;11491;41.942;24.220;2023-03-18T03:34:50;89994.41;;;2.11;70.78
22649;BME280;11491;41.942;24.220;2023-03-18T03:37:18;90008.47;;;2.07;71.23
22649;BME280;11491;41.942;24.220;2023-03-18T03:39:45;90004.25;;;2.06;70.29
22649;BME280;11491;41.942;24.220;2023-03-18T03:42:13;90003.38;;;2.10;70.42
22649;BME280;11491;41.942;24.220;2023-03-18T03:44:40;90004.91;;;1.98;71.12
22649;BME280;11491;41.942;24.220;2023-03-18T03:47:06;89999.66;;;1.98;71.83
22649;BME280;11491;41.942;24.220;2023-03-18T03:49:33;89993.78;;;2.01;71.94
22649;BME280;11491;41.942;24.220;2023-03-18T03:52:00;90004.25;;;2.06;71.46
22649;BME280;11491;41.942;24.220;2023-03-18T03:54:28;89990.81;;;1.88;71.91
22649;BME280;11491;41.942;24.220;2023-03-18T03:56:56;89998.50;;;2.04;71.50
22649;BME280;11491;41.942;24.220;2023-03-18T03:59:23;89990.09;;;2.02;71.60
22649;BME280;11491;41.942;24.220;2023-03-18T04:01:50;89998.50;;;2.04;72.04
22649;BME280;11491;41.942;24.220;2023-03-18T04:04:17;89998.50;;;2.04;72.38
22649;BME280;11491;41.942;24.220;2023-03-18T04:06:44;90004.50;;;1.90;72.52
22649;BME280;11491;41.942;24.220;2023-03-18T04:09:11;89994.53;;;1.87;72.31
22649;BME280;11491;41.942;24.220;2023-03-18T04:11:39;89998.88;;;1.97;72.33
22649;BME280;11491;41.942;24.220;2023-03-18T04:14:06;90006.31;;;2.09;71.33
22649;BME280;11491;41.942;24.220;2023-03-18T04:16:32;90007.28;;;1.99;71.41
22649;BME280;11491;41.942;24.220;2023-03-18T04:18:59;90006.97;;;2.01;71.40
22649;BME280;11491;41.942;24.220;2023-03-18T04:21:26;90013.91;;;1.97;71.60
22649;BME280;11491;41.942;24.220;2023-03-18T04:23:52;90010.28;;;1.92;71.45
22649;BME280;11491;41.942;24.220;2023-03-18T04:26:19;90003.91;;;1.93;71.30
22649;BME280;11491;41.942;24.220;2023-03-18T04:28:47;90022.47;;;1.88;72.06
22649;BME280;11491;41.942;24.220;2023-03-18T04:31:14;90021.31;;;1.94;70.90
22649;BME280;11491;41.942;24.220;2023-03-18T04:33:42;90022.47;;;1.88;71.14
22649;BME280;11491;41.942;24.220;2023-03-18T04:36:09;90020.91;;;1.87;71.03
22649;BME280;11491;41.942;24.220;2023-03-18T04:38:36;90016.13;;;1.89;70.60
22649;BME280;11491;41.942;24.220;2023-03-18T04:41:03;90021.69;;;1.88;70.48
22649;BME280;11491;41.942;24.220;2023-03-18T04:43:30;90025.59;;;1.90;70.46
22649;BME280;11491;41.942;24.220;2023-03-18T04:45:59;90023.47;;;1.92;70.96
22649;BME280;11491;41.942;24.220;2023-03-18T04:48:26;90030.94;;;1.85;71.23
22649;BME280;11491;41.942;24.220;2023-03-18T04:50:53;90025.75;;;1.80;71.53
22649;BME280;11491;41.942;24.220;2023-03-18T04:53:19;90027.91;;;1.78;71.23
22649;BME280;11491;41.942;24.220;2023-03-18T04:55:47;90031.03;;;1.80;71.19
22649;BME280;11491;41.942;24.220;2023-03-18T04:58:14;90036.91;;;1.91;70.59
22649;BME280;11491;41.942;24.220;2023-03-18T05:00:41;90037.72;;;1.91;71.52
22649;BME280;11491;41.942;24.220;2023-03-18T05:03:11;90044.91;;;1.86;71.28
22649;BME280;11491;41.942;24.220;2023-03-18T05:05:38;90044.72;;;1.82;71.67
22649;BME280;11491;41.942;24.220;2023-03-18T05:08:05;90044.72;;;1.82;71.37
22649;BME280;11491;41.942;24.220;2023-03-18T05:10:32;90036.72;;;1.87;71.08
22649;BME280;11491;41.942;24.220;2023-03-18T05:13:00;90049.63;;;1.89;70.84
22649;BME280;11491;41.942;24.220;2023-03-18T05:15:28;90050.41;;;1.89;71.08
22649;BME280;11491;41.942;24.220;2023-03-18T05:17:54;90044.06;;;1.90;70.97
22649;BME280;11491;41.942;24.220;2023-03-18T05:20:23;90048.34;;;1.86;71.33
22649;BME280;11491;41.942;24.220;2023-03-18T05:22:50;90052.28;;;1.70;70.95
22649;BME280;11491;41.942;24.220;2023-03-18T05:25:19;90058.31;;;1.70;70.73
22649;BME280;11491;41.942;24.220;2023-03-18T05:27:46;90038.47;;;1.40;71.54
22649;BME280;11491;41.942;24.220;2023-03-18T05:30:14;90056.41;;;1.38;71.84
22649;BME280;11491;41.942;24.220;2023-03-18T05:32:41;90057.88;;;1.25;71.93
22649;BME280;11491;41.942;24.220;2023-03-18T05:35:09;90038.59;;;1.30;72.00
22649;BME280;11491;41.942;24.220;2023-03-18T05:37:38;90061.91;;;1.42;72.61
22649;BME280;11491;41.942;24.220;2023-03-18T05:40:06;90063.66;;;1.46;72.21
22649;BME280;11491;41.942;24.220;2023-03-18T05:42:34;90067.22;;;1.56;72.33
22649;BME280;11491;41.942;24.220;2023-03-18T05:45:03;90065.53;;;1.65;71.37
22649;BME280;11491;41.942;24.220;2023-03-18T05:47:30;90058.84;;;1.72;70.87
22649;BME280;11491;41.942;24.220;2023-03-18T05:49:57;90058.75;;;1.78;70.61
22649;BME280;11491;41.942;24.220;2023-03-18T05:52:24;90060.97;;;1.89;68.87
22649;BME280;11491;41.942;24.220;2023-03-18T05:54:52;90056.81;;;1.83;69.87
22649;BME280;11491;41.942;24.220;2023-03-18T05:57:20;90064.09;;;1.91;70.42
22649;BME280;11491;41.942;24.220;2023-03-18T05:59:47;90060.06;;;2.13;69.69
22649;BME280;11491;41.942;24.220;2023-03-18T06:02:13;90051.69;;;2.25;69.28
22649;BME280;11491;41.942;24.220;2023-03-18T06:04:40;90046.06;;;2.31;69.02
22649;BME280;11491;41.942;24.220;2023-03-18T06:07:07;90052.72;;;2.43;68.74
22649;BME280;11491;41.942;24.220;2023-03-18T06:09:34;90053.53;;;2.57;68.52
22649;BME280;11491;41.942;24.220;2023-03-18T06:12:02;90047.28;;;2.67;68.06
22649;BME280;11491;41.942;24.220;2023-03-18T06:14:29;90046.50;;;2.66;67.83
22649;BME280;11491;41.942;24.220;2023-03-18T06:16:56;90053.16;;;2.77;67.27
22649;BME280;11491;41.942;24.220;2023-03-18T06:19:24;90045.63;;;2.85;66.93
22649;BME280;11491;41.942;24.220;2023-03-18T06:21:50;90043.38;;;2.92;67.61
22649;BME280;11491;41.942;24.220;2023-03-18T06:24:17;90047.88;;;3.05;67.21
22649;BME280;11491;41.942;24.220;2023-03-18T06:26:45;90050.41;;;3.10;67.09
22649;BME280;11491;41.942;24.220;2023-03-18T06:29:13;90045.50;;;3.17;66.43
22649;BME280;11491;41.942;24.220;2023-03-18T06:31:40;90037.69;;;3.12;66.27
22649;BME280;11491;41.942;24.220;2023-03-18T06:34:07;90044.75;;;3.31;66.28
22649;BME280;11491;41.942;24.220;2023-03-18T06:36:34;90035.03;;;3.40;64.01
22649;BME280;11491;41.942;24.220;2023-03-18T06:39:01;90044.50;;;3.55;64.64
22649;BME280;11491;41.942;24.220;2023-03-18T06:41:28;90044.88;;;3.62;64.51
22649;BME280;11491;41.942;24.220;2023-03-18T06:43:55;90046.59;;;3.80;64.04
22649;BME280;11491;41.942;24.220;2023-03-18T06:46:24;90049.41;;;3.84;62.51
22649;BME280;11491;41.942;24.220;2023-03-18T06:48:51;90045.22;;;3.83;62.17
22649;BME280;11491;41.942;24.220;2023-03-18T06:51:18;90038.91;;;3.93;62.94
22649;BME280;11491;41.942;24.220;2023-03-18T06:53:45;90046.97;;;4.32;63.03
22649;BME280;11491;41.942;24.220;2023-03-18T06:56:12;90045.28;;;4.37;60.91
22649;BME280;11491;41.942;24.220;2023-03-18T06:58:40;90048.00;;;4.45;61.37
22649;BME280;11491;41.942;24.220;2023-03-18T07:01:07;90039.31;;;4.53;60.91
22649;BME280;11491;41.942;24.220;2023-03-18T07:03:38;90042.69;;;4.45;59.32
22649;BME280;11491;41.942;24.220;2023-03-18T07:06:05;90048.00;;;4.45;60.80
22649;BME280;11491;41.942;24.220;2023-03-18T07:08:32;90040.47;;;4.39;59.98
22649;BME280;11491;41.942;24.220;2023-03-18T07:10:59;90037.53;;;4.40;60.62
22649;BME280;11491;41.942;24.220;2023-03-18T07:13:26;90039.44;;;4.48;59.60
22649;BME280;11491;41.942;24.220;2023-03-18T07:15:53;90040.06;;;4.45;59.84
22649;BME280;11491;41.942;24.220;2023-03-18T07:18:20;90037.75;;;4.52;59.58
22649;BME280;11491;41.942;24.220;2023-03-18T07:20:49;90037.63;;;4.58;60.00
22649;BME280;11491;41.942;24.220;2023-03-18T07:23:16;90043.38;;;4.82;59.30
22649;BME280;11491;41.942;24.220;2023-03-18T07:25:44;90033.00;;;5.03;59.22
22649;BME280;11491;41.942;24.220;2023-03-18T07:28:11;90036.63;;;5.16;58.83
22649;BME280;11491;41.942;24.220;2023-03-18T07:30:37;90037.97;;;5.45;57.39
22649;BME280;11491;41.942;24.220;2023-03-18T07:33:05;90036.09;;;5.54;53.98
22649;BME280;11491;41.942;24.220;2023-03-18T07:35:32;90033.13;;;5.47;53.75
22649;BME280;11491;41.942;24.220;2023-03-18T07:38:00;90033.28;;;5.42;57.36
22649;BME280;11491;41.942;24.220;2023-03-18T07:40:27;90034.69;;;5.48;56.40
22649;BME280;11491;41.942;24.220;2023-03-18T07:42:54;90032.69;;;5.62;55.67
22649;BME280;11491;41.942;24.220;2023-03-18T07:45:21;90036.13;;;5.71;54.82
22649;BME280;11491;41.942;24.220;2023-03-18T07:47:48;90042.22;;;5.72;54.57
22649;BME280;11491;41.942;24.220;2023-03-18T07:50:15;90042.97;;;5.55;54.81
22649;BME280;11491;41.942;24.220;2023-03-18T07:52:43;90041.44;;;5.14;55.72
22649;BME280;11491;41.942;24.220;2023-03-18T07:55:11;90049.50;;;5.00;57.24
22649;BME280;11491;41.942;24.220;2023-03-18T07:57:38;90049.44;;;4.83;58.56
22649;BME280;11491;41.942;24.220;2023-03-18T08:00:07;90047.00;;;4.64;58.65
22649;BME280;11491;41.942;24.220;2023-03-18T08:02:34;90043.53;;;4.32;60.60
22649;BME280;11491;41.942;24.220;2023-03-18T08:05:02;90049.06;;;3.99;61.27
22649;BME280;11491;41.942;24.220;2023-03-18T08:07:31;90045.22;;;3.83;62.35
22649;BME280;11491;41.942;24.220;2023-03-18T08:09:57;90041.59;;;3.79;62.90
22649;BME280;11491;41.942;24.220;2023-03-18T08:12:26;90050.38;;;3.88;63.03
22649;BME280;11491;41.942;24.220;2023-03-18T08:14:53;90061.13;;;4.05;61.59
22649;BME280;11491;41.942;24.220;2023-03-18T08:17:20;90054.78;;;3.93;62.26
22649;BME280;11491;41.942;24.220;2023-03-18T08:19:47;90061.81;;;3.97;63.18
22649;BME280;11491;41.942;24.220;2023-03-18T08:22:14;90064.03;;;4.04;61.13
22649;BME280;11491;41.942;24.220;2023-03-18T08:24:41;90061.13;;;4.05;60.71
22649;BME280;11491;41.942;24.220;2023-03-18T08:27:09;90057.84;;;4.08;60.91
22649;BME280;11491;41.942;24.220;2023-03-18T08:29:37;90057.78;;;4.22;59.68
22649;BME280;11491;41.942;24.220;2023-03-18T08:32:05;90049.97;;;4.17;57.88
22649;BME280;11491;41.942;24.220;2023-03-18T08:34:32;90047.50;;;3.98;57.36
22649;BME280;11491;41.942;24.220;2023-03-18T08:37:00;90049.97;;;3.58;55.85
22649;BME280;11491;41.942;24.220;2023-03-18T08:39:26;90057.34;;;3.84;56.84
22649;BME280;11491;41.942;24.220;2023-03-18T08:41:53;90048.28;;;3.99;57.73
22649;BME280;11491;41.942;24.220;2023-03-18T08:44:20;90052.81;;;3.98;56.41
22649;BME280;11491;41.942;24.220;2023-03-18T08:46:48;90061.19;;;3.78;60.11
22649;BME280;11491;41.942;24.220;2023-03-18T08:49:15;90065.00;;;3.85;59.33
22649;BME280;11491;41.942;24.220;2023-03-18T08:51:43;90061.66;;;3.80;58.55
22649;BME280;11491;41.942;24.220;2023-03-18T08:54:11;90053.69;;;3.57;60.48
22649;BME280;11491;41.942;24.220;2023-03-18T08:56:38;90063.66;;;3.74;61.65
22649;BME280;11491;41.942;24.220;2023-03-18T08:59:04;90063.38;;;3.98;58.87
22649;BME280;11491;41.942;24.220;2023-03-18T09:01:31;90061.00;;;4.10;58.44
22649;BME280;11491;41.942;24.220;2023-03-18T09:03:59;90030.28;;;3.64;57.85
22649;BME280;11491;41.942;24.220;2023-03-18T09:06:27;90043.31;;;3.61;56.76
22649;BME280;11491;41.942;24.220;2023-03-18T09:08:54;90066.38;;;3.83;58.14
22649;BME280;11491;41.942;24.220;2023-03-18T09:11:22;90060.50;;;3.72;58.28
22649;BME280;11491;41.942;24.220;2023-03-18T09:13:49;90054.84;;;3.65;58.71
22649;BME280;11491;41.942;24.220;2023-03-18T09:16:16;90054.94;;;3.60;59.08
22649;BME280;11491;41.942;24.220;2023-03-18T09:18:43;90056.09;;;3.67;59.05
22649;BME280;11491;41.942;24.220;2023-03-18T09:21:11;90058.41;;;3.60;58.66
22649;BME280;11491;41.942;24.220;2023-03-18T09:23:38;90056.22;;;3.62;59.04
22649;BME280;11491;41.942;24.220;2023-03-18T09:26:06;90040.25;;;3.67;56.87
22649;BME280;11491;41.942;24.220;2023-03-18T09:28:32;90053.84;;;3.75;55.31
22649;BME280;11491;41.942;24.220;2023-03-18T09:30:59;90052.34;;;3.46;55.33
22649;BME280;11491;41.942;24.220;2023-03-18T09:33:26;90043.59;;;3.59;56.22
22649;BME280;11491;41.942;24.220;2023-03-18T09:35:53;90051.88;;;3.80;56.25
22649;BME280;11491;41.942;24.220;2023-03-18T09:38:21;90057.50;;;4.24;54.24
22649;BME280;11491;41.942;24.220;2023-03-18T09:40:56;90041.09;;;4.67;53.25
22649;BME280;11491;41.942;24.220;2023-03-18T09:43:43;90048.63;;;5.79;57.16
22649;BME280;11491;41.942;24.220;2023-03-18T09:46:22;90052.41;;;6.31;56.39
22649;BME280;11491;41.942;24.220;2023-03-18T09:49:08;90057.38;;;5.89;57.42
22649;BME280;11491;41.942;24.220;2023-03-18T09:51:49;90059.75;;;5.24;58.98
22649;BME280;11491;41.942;24.220;2023-03-18T09:54:28;90062.88;;;4.64;61.27
22649;BME280;11491;41.942;24.220;2023-03-18T09:56:57;90063.44;;;4.07;63.85
22649;BME280;11491;41.942;24.220;2023-03-18T09:59:29;90069.56;;;3.57;63.83
22649;BME280;11491;41.942;24.220;2023-03-18T10:01:58;90073.09;;;3.39;65.95
22649;BME280;11491;41.942;24.220;2023-03-18T10:04:27;90065.88;;;3.31;65.97
22649;BME280;11491;41.942;24.220;2023-03-18T10:07:02;90070.97;;;2.99;65.26
22649;BME280;11491;41.942;24.220;2023-03-18T10:09:35;90072.34;;;2.97;65.49
22649;BME280;11491;41.942;24.220;2023-03-18T10:12:12;90077.81;;;2.87;63.96
22649;BME280;11491;41.942;24.220;2023-03-18T10:14:44;90077.41;;;2.79;65.80
22649;BME280;11491;41.942;24.220;2023-03-18T10:17:16;90081.59;;;2.80;65.10
22649;BME280;11491;41.942;24.220;2023-03-18T10:19:46;90084.88;;;2.91;65.27
22649;BME280;11491;41.942;24.220;2023-03-18T10:22:33;90059.03;;;3.02;63.45
22649;BME280;11491;41.942;24.220;2023-03-18T10:25:13;90079.19;;;3.26;62.87
22649;BME280;11491;41.942;24.220;2023-03-18T10:27:48;90081.53;;;3.41;62.74
22649;BME280;11491;41.942;24.220;2023-03-18T10:30:33;90082.47;;;3.73;61.84
22649;BME280;11491;41.942;24.220;2023-03-18T10:33:11;90072.19;;;4.52;60.79
22649;BME280;11491;41.942;24.220;2023-03-18T10:35:47;90074.44;;;5.39;59.40
22649;BME280;11491;41.942;24.220;2023-03-18T10:38:18;90079.34;;;5.54;55.87
22649;BME280;11491;41.942;24.220;2023-03-18T10:40:49;90067.38;;;5.92;56.24
22649;BME280;11491;41.942;24.220;2023-03-18T10:43:17;90072.44;;;6.37;55.00
22649;BME280;11491;41.942;24.220;2023-03-18T10:45:45;90070.25;;;6.39;52.77
22649;BME280;11491;41.942;24.220;2023-03-18T10:48:18;90072.41;;;6.02;51.68
22649;BME280;11491;41.942;24.220;2023-03-18T10:50:51;90065.75;;;5.56;51.54
22649;BME280;11491;41.942;24.220;2023-03-18T10:53:26;90068.81;;;5.40;54.28
22649;BME280;11491;41.942;24.220;2023-03-18T10:55:58;90068.88;;;5.58;51.91
22649;BME280;11491;41.942;24.220;2023-03-18T10:58:28;90060.97;;;5.84;53.35
22649;BME280;11491;41.942;24.220;2023-03-18T11:00:55;90061.63;;;5.98;53.67
22649;BME280;11491;41.942;24.220;2023-03-18T11:03:25;90061.47;;;5.95;52.11
22649;BME280;11491;41.942;24.220;2023-03-18T11:05:54;90063.16;;;5.82;50.95
22649;BME280;11491;41.942;24.220;2023-03-18T11:08:33;90057.00;;;5.47;53.37
22649;BME280;11491;41.942;24.220;2023-03-18T11:11:13;90060.31;;;5.78;52.76
22649;BME280;11491;41.942;24.220;2023-03-18T11:13:45;90055.22;;;6.08;51.02
22649;BME280;11491;41.942;24.220;2023-03-18T11:16:22;90066.00;;;6.20;50.13
22649;BME280;11491;41.942;24.220;2023-03-18T11:18:50;90069.44;;;6.21;52.25
22649;BME280;11491;41.942;24.220;2023-03-18T11:21:19;90070.34;;;6.86;50.07
22649;BME280;11491;41.942;24.220;2023-03-18T11:23:52;90061.31;;;7.17;47.73
22649;BME280;11491;41.942;24.220;2023-03-18T11:26:47;90064.72;;;6.70;47.64
22649;BME280;11491;41.942;24.220;2023-03-18T11:29:21;90064.88;;;6.65;49.51
22649;BME280;11491;41.942;24.220;2023-03-18T11:31:51;90064.44;;;7.19;50.95
22649;BME280;11491;41.942;24.220;2023-03-18T11:34:20;90067.63;;;7.80;46.42
22649;BME280;11491;41.942;24.220;2023-03-18T11:36:55;90077.31;;;6.99;47.00
22649;BME280;11491;41.942;24.220;2023-03-18T11:39:24;90041.97;;;6.08;47.67
22649;BME280;11491;41.942;24.220;2023-03-18T11:41:53;90078.34;;;5.99;51.72
22649;BME280;11491;41.942;24.220;2023-03-18T11:44:26;90067.13;;;6.37;49.04
22649;BME280;11491;41.942;24.220;2023-03-18T11:46:54;90081.47;;;6.53;48.70
22649;BME280;11491;41.942;24.220;2023-03-18T11:49:26;90083.38;;;6.27;48.96
22649;BME280;11491;41.942;24.220;2023-03-18T11:52:02;90070.25;;;6.04;48.11
22649;BME280;11491;41.942;24.220;2023-03-18T11:54:45;90064.94;;;6.04;49.27
22649;BME280;11491;41.942;24.220;2023-03-18T11:57:19;90066.41;;;5.70;50.15
22649;BME280;11491;41.942;24.220;2023-03-18T11:59:57;90070.56;;;6.11;52.08
22649;BME280;11491;41.942;24.220;2023-03-18T12:02:52;90074.13;;;6.50;47.80
22649;BME280;11491;41.942;24.220;2023-03-18T12:05:45;90081.47;;;6.36;47.85
22649;BME280;11491;41.942;24.220;2023-03-18T12:08:20;90084.84;;;5.93;49.07
22649;BME280;11491;41.942;24.220;2023-03-18T12:10:58;90073.75;;;5.65;50.00
22649;BME280;11491;41.942;24.220;2023-03-18T12:13:40;90080.06;;;5.37;50.98
22649;BME280;11491;41.942;24.220;2023-03-18T12:16:17;90082.28;;;5.44;50.72
22649;BME280;11491;41.942;24.220;2023-03-18T12:19:01;90083.19;;;5.39;52.01
22649;BME280;11491;41.942;24.220;2023-03-18T12:21:51;90083.06;;;5.45;53.50
22649;BME280;11491;41.942;24.220;2023-03-18T12:24:44;90076.59;;;5.28;50.68
22649;BME280;11491;41.942;24.220;2023-03-18T12:27:25;90086.72;;;5.26;53.01
22649;BME280;11491;41.942;24.220;2023-03-18T12:30:05;90089.91;;;5.06;53.00
22649;BME280;11491;41.942;24.220;2023-03-18T12:32:38;90088.63;;;4.94;52.75
22649;BME280;11491;41.942;24.220;2023-03-18T12:35:30;90092.78;;;5.18;54.95
22649;BME280;11491;41.942;24.220;2023-03-18T12:38:22;90089.38;;;5.26;54.01
22649;BME280;11491;41.942;24.220;2023-03-18T12:41:02;90092.16;;;5.21;52.88
22649;BME280;11491;41.942;24.220;2023-03-18T12:43:50;90099.50;;;5.24;55.29
22649;BME280;11491;41.942;24.220;2023-03-18T12:46:25;90101.19;;;5.20;54.46
22649;BME280;11491;41.942;24.220;2023-03-18T12:48:58;90104.53;;;5.34;54.43
22649;BME280;11491;41.942;24.220;2023-03-18T12:51:28;90097.38;;;5.44;54.12
22649;BME280;11491;41.942;24.220;2023-03-18T12:54:02;90101.63;;;5.45;53.13
22649;BME280;11491;41.942;24.220;2023-03-18T12:56:37;90100.59;;;5.23;53.24
22649;BME280;11491;41.942;24.220;2023-03-18T12:59:13;90092.41;;;5.11;51.14
22649;BME280;11491;41.942;24.220;2023-03-18T13:01:47;90103.03;;;5.11;53.02
22649;BME280;11491;41.942;24.220;2023-03-18T13:04:17;90095.91;;;5.20;51.84
22649;BME280;11491;41.942;24.220;2023-03-18T13:06:51;90111.03;;;4.88;52.15
22649;BME280;11491;41.942;24.220;2023-03-18T13:09:24;90115.19;;;4.58;52.32
22649;BME280;11491;41.942;24.220;2023-03-18T13:12:02;90117.53;;;4.37;55.70
22649;BME280;11491;41.942;24.220;2023-03-18T13:14:40;90124.78;;;4.45;55.03